<?xml version='1.0' encoding='UTF-8'?>
<gpx xmlns="http://www.topografix.com/GPX/1/1" creator="www.balnam.be" version="1.1" xmlns:xsi="http://www.w3.org/2001/XMLSchema-instance" xsi:schemaLocation="http://www.topografix.com/GPX/1/1 http://www.topografix.com/GPX/1/1/gpx.xsd">
<trk>
<name>lwzat49</name>
<cmt>v</cmt>
<desc>Antheit Sentier n°49 Ruelle Saint Martin / Rue Ernest Malvoz / Rue des Chasseurs Ardennais / Thier Boutique / Chaussée de Waremme / Thier de Corphalie</desc>
<link href="https://chemins.be/antheit/sentier/49"/><trkseg>
<trkpt lat="50.551665" lon="5.236834"><time>2026-05-02T20:49:37Z</time></trkpt>
<trkpt lat="50.550137" lon="5.238034"><time>2026-05-02T20:59:37Z</time></trkpt>
<trkpt lat="50.550101" lon="5.238005"><time>2026-05-02T21:09:37Z</time></trkpt>
<trkpt lat="50.549957" lon="5.238115"><time>2026-05-02T21:19:37Z</time></trkpt>
<trkpt lat="50.550116" lon="5.238499"><time>2026-05-02T21:29:37Z</time></trkpt>
</trkseg></trk>
<trk>
<name>lwzat49</name>
<cmt>q</cmt>
<desc>Antheit Sentier n°49 Ruelle Saint Martin / Rue Ernest Malvoz / Rue des Chasseurs Ardennais / Thier Boutique / Chaussée de Waremme / Thier de Corphalie</desc>
<link href="https://chemins.be/antheit/sentier/49"/><trkseg>
<trkpt lat="50.550116" lon="5.238499"><time>2026-05-02T21:29:37Z</time></trkpt>
<trkpt lat="50.549719" lon="5.239776"><time>2026-05-02T21:39:37Z</time></trkpt>
</trkseg></trk>
<trk>
<name>lwzat49</name>
<cmt>r</cmt>
<desc>Antheit Sentier n°49 Ruelle Saint Martin / Rue Ernest Malvoz / Rue des Chasseurs Ardennais / Thier Boutique / Chaussée de Waremme / Thier de Corphalie</desc>
<link href="https://chemins.be/antheit/sentier/49"/><trkseg>
<trkpt lat="50.549719" lon="5.239776"><time>2026-05-02T21:39:37Z</time></trkpt>
<trkpt lat="50.548941" lon="5.240425"><time>2026-05-02T21:49:37Z</time></trkpt>
<trkpt lat="50.547955" lon="5.241253"><time>2026-05-02T21:59:37Z</time></trkpt>
<trkpt lat="50.546186" lon="5.242166"><time>2026-05-02T22:09:37Z</time></trkpt>
<trkpt lat="50.545084" lon="5.244107"><time>2026-05-02T22:19:37Z</time></trkpt>
<trkpt lat="50.544836" lon="5.244765"><time>2026-05-02T22:29:37Z</time></trkpt>
<trkpt lat="50.543122" lon="5.246681"><time>2026-05-02T22:39:37Z</time></trkpt>
<trkpt lat="50.541141" lon="5.248365"><time>2026-05-02T22:49:37Z</time></trkpt>
<trkpt lat="50.540325" lon="5.249225"><time>2026-05-02T22:59:37Z</time></trkpt>
<trkpt lat="50.539919" lon="5.249401"><time>2026-05-02T23:09:37Z</time></trkpt>
<trkpt lat="50.538940" lon="5.249326"><time>2026-05-02T23:19:37Z</time></trkpt>
</trkseg></trk>
<trk>
<name>lwzat49</name>
<cmt>v</cmt>
<desc>Antheit Sentier n°49 Ruelle Saint Martin / Rue Ernest Malvoz / Rue des Chasseurs Ardennais / Thier Boutique / Chaussée de Waremme / Thier de Corphalie</desc>
<link href="https://chemins.be/antheit/sentier/49"/><trkseg>
<trkpt lat="50.538940" lon="5.249326"><time>2026-05-02T23:19:37Z</time></trkpt>
<trkpt lat="50.538318" lon="5.249427"><time>2026-05-02T23:29:37Z</time></trkpt>
<trkpt lat="50.537421" lon="5.249710"><time>2026-05-02T23:39:37Z</time></trkpt>
</trkseg></trk>
<trk>
<name>lwzat49</name>
<cmt>r</cmt>
<desc>Antheit Sentier n°49 Ruelle Saint Martin / Rue Ernest Malvoz / Rue des Chasseurs Ardennais / Thier Boutique / Chaussée de Waremme / Thier de Corphalie</desc>
<link href="https://chemins.be/antheit/sentier/49"/><trkseg>
<trkpt lat="50.537421" lon="5.249710"><time>2026-05-02T23:39:37Z</time></trkpt>
<trkpt lat="50.537755" lon="5.250568"><time>2026-05-02T23:49:37Z</time></trkpt>
<trkpt lat="50.537162" lon="5.250586"><time>2026-05-02T23:59:37Z</time></trkpt>
<trkpt lat="50.537127" lon="5.250761"><time>2026-05-03T00:09:37Z</time></trkpt>
</trkseg></trk>
<trk>
<name>lwzat49</name>
<cmt>q</cmt>
<desc>Antheit Sentier n°49 Ruelle Saint Martin / Rue Ernest Malvoz / Rue des Chasseurs Ardennais / Thier Boutique / Chaussée de Waremme / Thier de Corphalie</desc>
<link href="https://chemins.be/antheit/sentier/49"/><trkseg>
<trkpt lat="50.537127" lon="5.250761"><time>2026-05-03T00:09:37Z</time></trkpt>
<trkpt lat="50.537007" lon="5.250872"><time>2026-05-03T00:19:37Z</time></trkpt>
<trkpt lat="50.536807" lon="5.250926"><time>2026-05-03T00:29:37Z</time></trkpt>
<trkpt lat="50.536350" lon="5.252074"><time>2026-05-03T00:39:37Z</time></trkpt>
<trkpt lat="50.536316" lon="5.252231"><time>2026-05-03T00:49:37Z</time></trkpt>
<trkpt lat="50.536059" lon="5.252206"><time>2026-05-03T00:59:37Z</time></trkpt>
</trkseg>
</trk>
</gpx>